Gunilla — SERW — position and weather

sailwx.info

Track history (hours):
 
Tides and Currents Weather Stations Pressure Air Temp Water Temp Dewpoint Dewpoint Depression Visibility Wind Speed Wind Dir Waves Ship Positions

Gunilla (Sweden)

Ship's website: http://www.gunilla.nu/engelsk/frameset_english.htm

Last reported at 2017-Oct-04 13:36 UTC. Time now 2017-Oct-22 19:21 UTC.
Position N 36°48' W 008°00'.
Warning: this ship's position is 18 days out of date.

Length 49.4 m; beam 8.4 m; draft 2.7 m.

Type: Sailing vessel. MMSI: 265318000.

Date/timePositionNaut miles runAvg speedWind from/ knotsBaromVisibWave heightAir tempDewpointWater temp
2017-Oct-04 13:36N 36°48' W 008°00'1 4.5
2017-Oct-04 13:29N 36°48' W 008°00'6 1.9
2017-Oct-04 10:21N 36°43' W 007°57'10 2.3
2017-Oct-04 06:07N 36°50' W 008°04'1 3.3
2017-Oct-04 05:53N 36°51' W 008°05'1 3.0
2017-Oct-04 05:23N 36°51' W 008°07'1 3.1
2017-Oct-04 04:55N 36°51' W 008°08'1 3.0
2017-Oct-04 04:26N 36°52' W 008°10'1 3.1
2017-Oct-04 04:00N 36°52' W 008°12'2 3.2
2017-Oct-04 03:28N 36°53' W 008°14'2 3.2
2017-Oct-04 02:59N 36°53' W 008°16'2 3.4
2017-Oct-04 02:30N 36°53' W 008°18'2 3.4
2017-Oct-04 01:59N 36°54' W 008°20'2 3.4
2017-Oct-04 01:30N 36°54' W 008°22'2 3.6
2017-Oct-04 01:00N 36°54' W 008°24'2 3.5
2017-Oct-04 00:30N 36°54' W 008°26'2 3.5
2017-Oct-04 00:00N 36°54' W 008°28'2 3.4
2017-Oct-03 23:30N 36°54' W 008°30'2 3.4
2017-Oct-03 23:00N 36°53' W 008°33'1 2.8
2017-Oct-03 22:30N 36°53' W 008°34'1 1.4
2017-Oct-03 22:00N 36°53' W 008°35'0 0.4
2017-Oct-03 21:28N 36°53' W 008°35'0 0.4
2017-Oct-03 21:00N 36°53' W 008°35'0 0.6
2017-Oct-03 20:29N 36°53' W 008°36'1 2.0
2017-Oct-03 20:00N 36°53' W 008°37'2 4.3
2017-Oct-03 19:30N 36°53' W 008°40'2 4.3
2017-Oct-03 19:00N 36°53' W 008°42'2 4.1
2017-Oct-03 18:30N 36°54' W 008°45'2 4.4
2017-Oct-03 18:00N 36°54' W 008°47'2 3.9
2017-Oct-03 17:30N 36°54' W 008°50'1 2.9
2017-Oct-03 17:00N 36°55' W 008°52'2 3.1
2017-Oct-03 16:28N 36°55' W 008°54'3 4.2
2017-Oct-03 15:52N 36°56' W 008°57'39 2.3
2017-Oct-02 22:48N 37°32' W 009°15'1 2.4
2017-Oct-02 22:28N 37°33' W 009°15'2 2.8
2017-Oct-02 21:47N 37°34' W 009°15'1 1.8
2017-Oct-02 21:18N 37°35' W 009°15'1 2.7
2017-Oct-02 21:00N 37°36' W 009°15'1 2.1
2017-Oct-02 20:30N 37°37' W 009°16'1 2.8
2017-Oct-02 20:00N 37°39' W 009°16'2 4.6
2017-Oct-02 19:30N 37°41' W 009°16'3 6.5
2017-Oct-02 19:00N 37°44' W 009°16'3 6.5
2017-Oct-02 18:30N 37°47' W 009°16'4 7.1
2017-Oct-02 18:00N 37°51' W 009°17'3 6.9
2017-Oct-02 17:30N 37°54' W 009°17'3 6.5
2017-Oct-02 17:00N 37°58' W 009°17'3 6.2
2017-Oct-02 16:30N 38°01' W 009°18'3 5.7
2017-Oct-02 16:00N 38°03' W 009°18'3 5.1
2017-Oct-02 15:30N 38°06' W 009°19'3 6.3
2017-Oct-02 15:00N 38°09' W 009°19'3 5.8
2017-Oct-02 14:30N 38°12' W 009°19'3 5.8
2017-Oct-02 14:00N 38°15' W 009°20'1 2.4
2017-Oct-02 13:30N 38°16' W 009°20'2 4.4
2017-Oct-02 13:00N 38°18' W 009°21'2 4.8
2017-Oct-02 12:30N 38°20' W 009°21'3 5.6
2017-Oct-02 12:00N 38°23' W 009°22'3 5.3
2017-Oct-02 11:30N 38°26' W 009°22'3 5.4
2017-Oct-02 11:00N 38°29' W 009°22'2 4.6
2017-Oct-02 10:30N 38°31' W 009°23'0 0.6
2017-Oct-02 10:00N 38°31' W 009°23'2 4.9
2017-Oct-02 09:30N 38°33' W 009°24'3 6.1
2017-Oct-02 09:00N 38°36' W 009°23'4 7.2
2017-Oct-02 08:30N 38°39' W 009°20'3 6.7
2017-Oct-02 08:00N 38°41' W 009°17'4 7.2
2017-Oct-02 07:30N 38°41' W 009°12'2 4.1
2017-Oct-02 06:58N 38°42' W 009°09'0 0.0
2017-Oct-02 06:28N 38°42' W 009°09'0 0.0
2017-Oct-02 05:52N 38°42' W 009°09'0 0.0
2017-Oct-02 05:25N 38°42' W 009°09'0 0.0
2017-Oct-02 04:58N 38°42' W 009°09'0 0.0
2017-Oct-02 04:22N 38°42' W 009°09'0 0.0
2017-Oct-02 03:49N 38°42' W 009°09'0 0.0
2017-Oct-02 03:04N 38°42' W 009°09'0 0.0
2017-Oct-02 02:58N 38°42' W 009°09'0 0.0
2017-Oct-02 02:28N 38°42' W 009°09'0 0.0
2017-Oct-02 01:55N 38°42' W 009°09'0 0.0
2017-Oct-02 01:28N 38°42' W 009°09'0 0.0
2017-Oct-01 23:58N 38°42' W 009°09'0 0.0
2017-Oct-01 23:16N 38°42' W 009°09'0 0.0
2017-Oct-01 22:58N 38°42' W 009°09'0 0.0
2017-Oct-01 22:16N 38°42' W 009°09'0 0.0
2017-Oct-01 21:46N 38°42' W 009°09'0 0.0
2017-Oct-01 21:28N 38°42' W 009°09'0 0.0
2017-Oct-01 20:58N 38°42' W 009°09'0 0.0
2017-Oct-01 20:22N 38°42' W 009°09'0 0.0
2017-Oct-01 19:49N 38°42' W 009°09'0 0.0
2017-Oct-01 18:58N 38°42' W 009°09'0 0.0
2017-Oct-01 18:25N 38°42' W 009°09'0 0.0
2017-Oct-01 17:58N 38°42' W 009°09'0 0.0
2017-Oct-01 17:22N 38°42' W 009°09'0 0.0
2017-Oct-01 16:58N 38°42' W 009°09'0 0.0
2017-Oct-01 16:16N 38°42' W 009°09'0 0.0
2017-Oct-01 15:58N 38°42' W 009°09'0 0.0
2017-Oct-01 15:19N 38°42' W 009°09'0 0.0
2017-Oct-01 14:58N 38°42' W 009°09'0 0.0
2017-Oct-01 14:22N 38°42' W 009°09'0 0.0
2017-Oct-01 13:04N 38°42' W 009°09'0 0.0
2017-Oct-01 12:58N 38°42' W 009°09'0 0.0
2017-Oct-01 12:28N 38°42' W 009°09'0 0.0
2017-Oct-01 11:43N 38°42' W 009°09'0 0.0
2017-Oct-01 11:16N 38°42' W 009°09'0 0.0
2017-Oct-01 10:58N 38°42' W 009°09'0 0.0
2017-Oct-01 10:25N 38°42' W 009°09'0 0.0
2017-Oct-01 09:04N 38°42' W 009°09'0 0.0
2017-Oct-01 08:58N 38°42' W 009°09'0 0.0
2017-Oct-01 08:28N 38°42' W 009°09'0 0.0
2017-Oct-01 07:49N 38°42' W 009°09'0 0.0
2017-Oct-01 07:28N 38°42' W 009°09'0 0.0
2017-Oct-01 06:46N 38°42' W 009°09'0 0.0
2017-Oct-01 06:25N 38°42' W 009°09'0 0.0
2017-Oct-01 05:58N 38°42' W 009°09'0 0.0
2017-Oct-01 05:19N 38°42' W 009°09'0 0.0
2017-Oct-01 04:58N 38°42' W 009°09'0 0.0
2017-Oct-01 04:19N 38°42' W 009°09'0 0.0
2017-Oct-01 03:10N 38°42' W 009°09'0 0.0
2017-Oct-01 02:58N 38°42' W 009°09'0 0.0
2017-Sep-30 01:58N 38°42' W 009°09'0 0.0
2017-Sep-30 01:07N 38°42' W 009°09'0 0.0
2017-Sep-30 00:13N 38°42' W 009°09'0 0.0
2017-Sep-29 23:49N 38°42' W 009°09'0 0.0
2017-Sep-29 23:04N 38°42' W 009°09'0 0.1
2017-Sep-29 22:58N 38°42' W 009°09'0 0.0
2017-Sep-29 22:19N 38°42' W 009°09'0 0.0
2017-Sep-29 21:58N 38°42' W 009°09'0 0.0
2017-Sep-29 21:28N 38°42' W 009°09'0 0.0
2017-Sep-29 19:58N 38°42' W 009°09'0 0.0
2017-Sep-29 19:25N 38°42' W 009°09'0 0.0
2017-Sep-29 17:13N 38°42' W 009°09'0 0.0
2017-Sep-29 16:58N 38°42' W 009°09'0 0.0
2017-Sep-29 16:22N 38°42' W 009°09'0 0.0
2017-Sep-29 15:04N 38°42' W 009°09'0 0.0
2017-Sep-29 14:58N 38°42' W 009°09'0 0.0
2017-Sep-29 14:22N 38°42' W 009°09'0 0.0
2017-Sep-29 13:58N 38°42' W 009°09'0 0.0
2017-Sep-29 13:28N 38°42' W 009°09'0 0.0
2017-Sep-29 12:58N 38°42' W 009°09'0 0.0
2017-Sep-29 12:22N 38°42' W 009°09'0 0.0
2017-Sep-29 11:58N 38°42' W 009°09'0 0.0
2017-Sep-29 11:10N 38°42' W 009°09'0 0.0
2017-Sep-29 10:43N 38°42' W 009°09'0 0.0
2017-Sep-29 10:28N 38°42' W 009°09'0 0.0
2017-Sep-29 09:58N 38°42' W 009°09'0 0.0
2017-Sep-29 09:16N 38°42' W 009°09'0 0.0
2017-Sep-29 08:52N 38°42' W 009°09'0 0.0
2017-Sep-29 08:25N 38°42' W 009°09'0 0.0
2017-Sep-29 07:40N 38°42' W 009°09'0 0.0
2017-Sep-29 07:19N 38°42' W 009°09'0 0.0
2017-Sep-29 06:58N 38°42' W 009°09'0 0.0
2017-Sep-29 06:28N 38°42' W 009°09'0 0.0
2017-Sep-29 05:58N 38°42' W 009°09'0 0.0
2017-Sep-29 05:10N 38°42' W 009°09'0 0.0
2017-Sep-29 04:58N 38°42' W 009°09'0 0.0
2017-Sep-29 04:19N 38°42' W 009°09'0 0.0
2017-Sep-29 03:28N 38°42' W 009°09'0 0.0
2017-Sep-29 02:52N 38°42' W 009°09'0 0.0
2017-Sep-29 02:28N 38°42' W 009°09'0 0.0
2017-Sep-29 01:46N 38°42' W 009°09'0 0.0
2017-Sep-29 01:28N 38°42' W 009°09'0 0.0
2017-Sep-29 00:58N 38°42' W 009°09'0 0.0
2017-Sep-29 00:28N 38°42' W 009°09'0 0.0
2017-Sep-28 23:52N 38°42' W 009°09'0 0.0
2017-Sep-28 23:28N 38°42' W 009°09'0 0.0
2017-Sep-28 22:52N 38°42' W 009°09'0 0.0
2017-Sep-28 22:22N 38°42' W 009°09'0 0.0
2017-Sep-28 21:58N 38°42' W 009°09'0 0.0
2017-Sep-28 21:19N 38°42' W 009°09'0 0.0
2017-Sep-28 20:58N 38°42' W 009°09'0 0.0
2017-Sep-28 20:22N 38°42' W 009°09'0 0.0
2017-Sep-28 19:58N 38°42' W 009°09'0 0.0
2017-Sep-28 19:19N 38°42' W 009°09'0 0.0
2017-Sep-28 18:46N 38°42' W 009°09'0 0.0
2017-Sep-28 18:25N 38°42' W 009°09'0 0.0
2017-Sep-28 17:52N 38°42' W 009°09'0 0.0
2017-Sep-28 17:10N 38°42' W 009°09'0 0.0
2017-Sep-28 16:58N 38°42' W 009°09'0 0.0
2017-Sep-28 16:28N 38°42' W 009°09'0 0.0
2017-Sep-28 15:49N 38°42' W 009°09'0 0.0
2017-Sep-28 15:04N 38°42' W 009°09'0 0.0
2017-Sep-28 14:37N 38°42' W 009°09'0 0.0
2017-Sep-28 13:43N 38°42' W 009°09'0 0.0
2017-Sep-28 12:10N 38°42' W 009°09'0 0.0
2017-Sep-28 11:58N 38°42' W 009°09'0 0.0
2017-Sep-28 11:25N 38°42' W 009°09'0 0.0
2017-Sep-28 10:58N 38°42' W 009°09'0 0.0
2017-Sep-28 10:28N 38°42' W 009°09'0 0.0
2017-Sep-28 09:58N 38°42' W 009°09'0 0.0
2017-Sep-28 09:28N 38°42' W 009°09'0 0.0
2017-Sep-28 08:43N 38°42' W 009°09'0 0.0
2017-Sep-28 08:28N 38°42' W 009°10'0 0.0
2017-Sep-28 07:58N 38°42' W 009°09'0 0.0
2017-Sep-28 07:28N 38°42' W 009°09'0 0.0
2017-Sep-28 06:58N 38°42' W 009°09'0 0.0
2017-Sep-28 06:25N 38°42' W 009°09'0 0.0
2017-Sep-28 05:58N 38°42' W 009°09'0 0.0
2017-Sep-28 05:25N 38°42' W 009°09'0 0.0
2017-Sep-28 04:58N 38°42' W 009°09'0 0.0
2017-Sep-28 04:22N 38°42' W 009°09'0 0.0
2017-Sep-28 03:49N 38°42' W 009°09'0 0.0
2017-Sep-28 03:25N 38°42' W 009°09'0 0.0
2017-Sep-28 02:58N 38°42' W 009°09'0 0.0
2017-Sep-28 02:19N 38°42' W 009°09'0 0.0
2017-Sep-28 01:58N 38°42' W 009°09'0 0.0
2017-Sep-28 01:13N 38°42' W 009°09'0 0.0
2017-Sep-28 00:52N 38°42' W 009°09'0 0.0
2017-Sep-28 00:28N 38°42' W 009°09'0 0.0
2017-Sep-27 23:58N 38°42' W 009°09'0 0.0
2017-Sep-27 23:22N 38°42' W 009°09'0 0.0
2017-Sep-27 22:46N 38°42' W 009°09'0 0.0
2017-Sep-27 22:28N 38°42' W 009°09'0 0.0
2017-Sep-27 21:58N 38°42' W 009°09'0 0.0
2017-Sep-27 21:04N 38°42' W 009°09'0 0.0
2017-Sep-27 20:55N 38°42' W 009°09'0 0.0
2017-Sep-27 20:22N 38°42' W 009°09'0 0.0
2017-Sep-27 19:49N 38°42' W 009°09'0 0.0
2017-Sep-27 19:28N 38°42' W 009°09'0 0.0
2017-Sep-27 18:34N 38°42' W 009°09'0 0.0
2017-Sep-27 18:19N 38°42' W 009°09'0 0.0
2017-Sep-27 17:58N 38°42' W 009°09'0 0.0
2017-Sep-27 16:58N 38°42' W 009°09'0 0.0
2017-Sep-27 16:28N 38°42' W 009°09'0 0.0
2017-Sep-27 15:58N 38°42' W 009°09'0 0.0
2017-Sep-27 15:28N 38°42' W 009°09'0 0.0
2017-Sep-27 14:55N 38°42' W 009°09'0 0.0
2017-Sep-27 14:28N 38°42' W 009°09'0 0.0
2017-Sep-27 13:49N 38°42' W 009°09'0 0.0
2017-Sep-27 13:19N 38°42' W 009°09'0 0.0
2017-Sep-27 12:40N 38°42' W 009°09'0 0.0
2017-Sep-27 12:22N 38°42' W 009°09'0 0.0
2017-Sep-27 11:46N 38°42' W 009°09'0 0.0
2017-Sep-27 11:13N 38°42' W 009°09'0 0.0
2017-Sep-27 10:58N 38°42' W 009°09'0 0.0
2017-Sep-27 10:25N 38°42' W 009°09'0 0.0
2017-Sep-27 09:52N 38°42' W 009°09'0 0.0
2017-Sep-27 09:16N 38°42' W 009°09'0 0.0
2017-Sep-27 08:49N 38°42' W 009°09'0 0.0
2017-Sep-27 08:19N 38°42' W 009°10'0 0.0
2017-Sep-27 07:58N 38°42' W 009°09'0 0.0
2017-Sep-27 07:16N 38°42' W 009°09'0 0.0
2017-Sep-27 05:58N 38°42' W 009°09'0 0.0
2017-Sep-27 04:37N 38°42' W 009°09'0 0.0
2017-Sep-27 04:16N 38°42' W 009°09'0 0.0
2017-Sep-27 03:58N 38°42' W 009°09'0 0.0
2017-Sep-27 03:16N 38°42' W 009°09'0 0.0
2017-Sep-27 02:58N 38°42' W 009°09'0 0.0
2017-Sep-27 02:22N 38°42' W 009°09'0 0.0
2017-Sep-27 01:40N 38°42' W 009°10'0 0.0
2017-Sep-27 01:28N 38°42' W 009°09'0 0.0
2017-Sep-27 00:58N 38°42' W 009°09'0 0.0
2017-Sep-27 00:25N 38°42' W 009°09'0 0.0
2017-Sep-26 23:07N 38°42' W 009°09'0 0.0
2017-Sep-26 22:55N 38°42' W 009°09'0 0.0
2017-Sep-26 22:19N 38°42' W 009°09'0 0.0
2017-Sep-26 21:58N 38°42' W 009°09'0 0.0
2017-Sep-26 21:16N 38°42' W 009°09'0 0.0
2017-Sep-26 20:52N 38°42' W 009°09'0 0.0
2017-Sep-26 20:28N 38°42' W 009°09'0 0.0
2017-Sep-26 19:58N 38°42' W 009°09'0 0.0
2017-Sep-26 18:55N 38°42' W 009°09'0 0.0
2017-Sep-26 18:25N 38°42' W 009°09'0 0.0
2017-Sep-26 17:58N 38°42' W 009°09'0 0.0
2017-Sep-26 17:22N 38°42' W 009°09'0 0.0
2017-Sep-26 16:52N 38°42' W 009°09'0 0.0
2017-Sep-26 16:28N 38°42' W 009°09'0 0.0
2017-Sep-26 15:58N 38°42' W 009°09'0 0.0
2017-Sep-26 15:19N 38°42' W 009°09'0 0.0
2017-Sep-26 14:55N 38°42' W 009°09'0 0.0
2017-Sep-26 14:28N 38°42' W 009°09'0 0.0
2017-Sep-26 13:58N 38°42' W 009°09'0 0.0
2017-Sep-26 13:28N 38°42' W 009°09'0 0.0
2017-Sep-26 12:58N 38°42' W 009°09'0 0.0
2017-Sep-26 12:28N 38°42' W 009°09'0 0.0
2017-Sep-26 11:58N 38°42' W 009°09'0 0.0
2017-Sep-26 11:28N 38°42' W 009°09'0 0.0
2017-Sep-26 10:52N 38°42' W 009°09'0 0.0
2017-Sep-26 10:28N 38°42' W 009°09'0 0.0
2017-Sep-26 09:58N 38°42' W 009°09'0 0.0
2017-Sep-26 09:28N 38°42' W 009°09'0 0.0
2017-Sep-26 08:58N 38°42' W 009°09'0 0.0
2017-Sep-26 08:28N 38°42' W 009°09'0 0.0
2017-Sep-26 07:58N 38°42' W 009°09'0 0.0
2017-Sep-26 07:19N 38°42' W 009°09'0 0.0
2017-Sep-26 06:58N 38°42' W 009°09'0 0.0
2017-Sep-26 06:31N 38°42' W 009°09'0 0.5
2017-Sep-26 06:01N 38°42' W 009°09'3 5.4
2017-Sep-26 05:30N 38°41' W 009°13'3 5.6
2017-Sep-26 05:01N 38°41' W 009°16'2 4.2
2017-Sep-26 04:31N 38°40' W 009°19'3 5.2
2017-Sep-26 04:00N 38°38' W 009°21'3 5.6
2017-Sep-26 03:30N 38°36' W 009°24'3 6.4
2017-Sep-26 03:00N 38°36' W 009°28'3 6.2
2017-Sep-26 02:30N 38°36' W 009°32'3 6.0
2017-Sep-26 02:00N 38°37' W 009°36'3 5.6
2017-Sep-26 01:30N 38°37' W 009°39'3 5.4
2017-Sep-26 01:01N 38°38' W 009°42'3 5.9
2017-Sep-26 00:30N 38°41' W 009°43'3 6.0
2017-Sep-26 00:00N 38°44' W 009°43'3 5.8
2017-Sep-25 23:30N 38°47' W 009°44'3 5.8
2017-Sep-25 23:00N 38°50' W 009°44'3 5.8
2017-Sep-25 22:30N 38°53' W 009°44'2 3.6
2017-Sep-25 22:00N 38°54' W 009°43'2 3.0
2017-Sep-25 21:30N 38°56' W 009°42'2 3.5
2017-Sep-25 21:00N 38°58' W 009°42'2 3.7
2017-Sep-25 20:30N 38°59' W 009°42'2 3.6
2017-Sep-25 20:00N 39°01' W 009°42'2 3.3
2017-Sep-25 19:30N 39°03' W 009°43'1 2.8
2017-Sep-25 19:01N 39°04' W 009°43'1 2.4
2017-Sep-25 18:30N 39°05' W 009°43'1 2.8
2017-Sep-25 18:00N 39°07' W 009°43'1 2.5
2017-Sep-25 17:30N 39°08' W 009°42'1 2.2
2017-Sep-25 17:00N 39°09' W 009°42'1 1.9
2017-Sep-25 16:30N 39°10' W 009°42'1 1.8
2017-Sep-25 16:00N 39°11' W 009°42'1 1.6
2017-Sep-25 15:30N 39°12' W 009°43'1 2.9
2017-Sep-25 15:00N 39°13' W 009°44'3 5.5
2017-Sep-25 14:30N 39°15' W 009°45'2 4.9
2017-Sep-25 14:00N 39°18' W 009°45'2 4.1
2017-Sep-25 13:30N 39°20' W 009°44'2 4.7
2017-Sep-25 13:00N 39°22' W 009°45'3 5.2
2017-Sep-25 12:27N 39°25' W 009°45'  
Track history (hours):
 
Tides and Currents Weather Stations Pressure Air Temp Water Temp Dewpoint Dewpoint Depression Visibility Wind Speed Wind Dir Waves Ship Positions

Gunilla (Sweden)

Ship's website: http://www.gunilla.nu/engelsk/frameset_english.htm

Last reported at 2017-Oct-04 13:36 UTC. Time now 2017-Oct-22 19:21 UTC.
Position N 36°48' W 008°00'.
Warning: this ship's position is 18 days out of date.

Length 49.4 m; beam 8.4 m; draft 2.7 m.

Type: Sailing vessel. MMSI: 265318000.

Date/timePositionNaut miles runAvg speedWind from/ knotsBaromVisibWave heightAir tempDewpointWater temp
2017-Oct-04 13:36N 36°48' W 008°00'1 4.5
2017-Oct-04 13:29N 36°48' W 008°00'6 1.9
2017-Oct-04 10:21N 36°43' W 007°57'10 2.3
2017-Oct-04 06:07N 36°50' W 008°04'1 3.3
2017-Oct-04 05:53N 36°51' W 008°05'1 3.0
2017-Oct-04 05:23N 36°51' W 008°07'1 3.1
2017-Oct-04 04:55N 36°51' W 008°08'1 3.0
2017-Oct-04 04:26N 36°52' W 008°10'1 3.1
2017-Oct-04 04:00N 36°52' W 008°12'2 3.2
2017-Oct-04 03:28N 36°53' W 008°14'2 3.2
2017-Oct-04 02:59N 36°53' W 008°16'2 3.4
2017-Oct-04 02:30N 36°53' W 008°18'2 3.4
2017-Oct-04 01:59N 36°54' W 008°20'2 3.4
2017-Oct-04 01:30N 36°54' W 008°22'2 3.6
2017-Oct-04 01:00N 36°54' W 008°24'2 3.5
2017-Oct-04 00:30N 36°54' W 008°26'2 3.5
2017-Oct-04 00:00N 36°54' W 008°28'2 3.4
2017-Oct-03 23:30N 36°54' W 008°30'2 3.4
2017-Oct-03 23:00N 36°53' W 008°33'1 2.8
2017-Oct-03 22:30N 36°53' W 008°34'1 1.4
2017-Oct-03 22:00N 36°53' W 008°35'0 0.4
2017-Oct-03 21:28N 36°53' W 008°35'0 0.4
2017-Oct-03 21:00N 36°53' W 008°35'0 0.6
2017-Oct-03 20:29N 36°53' W 008°36'1 2.0
2017-Oct-03 20:00N 36°53' W 008°37'2 4.3
2017-Oct-03 19:30N 36°53' W 008°40'2 4.3
2017-Oct-03 19:00N 36°53' W 008°42'2 4.1
2017-Oct-03 18:30N 36°54' W 008°45'2 4.4
2017-Oct-03 18:00N 36°54' W 008°47'2 3.9
2017-Oct-03 17:30N 36°54' W 008°50'1 2.9
2017-Oct-03 17:00N 36°55' W 008°52'2 3.1
2017-Oct-03 16:28N 36°55' W 008°54'3 4.2
2017-Oct-03 15:52N 36°56' W 008°57'39 2.3
2017-Oct-02 22:48N 37°32' W 009°15'1 2.4
2017-Oct-02 22:28N 37°33' W 009°15'2 2.8
2017-Oct-02 21:47N 37°34' W 009°15'1 1.8
2017-Oct-02 21:18N 37°35' W 009°15'1 2.7
2017-Oct-02 21:00N 37°36' W 009°15'1 2.1
2017-Oct-02 20:30N 37°37' W 009°16'1 2.8
2017-Oct-02 20:00N 37°39' W 009°16'2 4.6
2017-Oct-02 19:30N 37°41' W 009°16'3 6.5
2017-Oct-02 19:00N 37°44' W 009°16'3 6.5
2017-Oct-02 18:30N 37°47' W 009°16'4 7.1
2017-Oct-02 18:00N 37°51' W 009°17'3 6.9
2017-Oct-02 17:30N 37°54' W 009°17'3 6.5
2017-Oct-02 17:00N 37°58' W 009°17'3 6.2
2017-Oct-02 16:30N 38°01' W 009°18'3 5.7
2017-Oct-02 16:00N 38°03' W 009°18'3 5.1
2017-Oct-02 15:30N 38°06' W 009°19'3 6.3
2017-Oct-02 15:00N 38°09' W 009°19'3 5.8
2017-Oct-02 14:30N 38°12' W 009°19'3 5.8
2017-Oct-02 14:00N 38°15' W 009°20'1 2.4
2017-Oct-02 13:30N 38°16' W 009°20'2 4.4
2017-Oct-02 13:00N 38°18' W 009°21'2 4.8
2017-Oct-02 12:30N 38°20' W 009°21'3 5.6
2017-Oct-02 12:00N 38°23' W 009°22'3 5.3
2017-Oct-02 11:30N 38°26' W 009°22'3 5.4
2017-Oct-02 11:00N 38°29' W 009°22'2 4.6
2017-Oct-02 10:30N 38°31' W 009°23'0 0.6
2017-Oct-02 10:00N 38°31' W 009°23'2 4.9
2017-Oct-02 09:30N 38°33' W 009°24'3 6.1
2017-Oct-02 09:00N 38°36' W 009°23'4 7.2
2017-Oct-02 08:30N 38°39' W 009°20'3 6.7
2017-Oct-02 08:00N 38°41' W 009°17'4 7.2
2017-Oct-02 07:30N 38°41' W 009°12'2 4.1
2017-Oct-02 06:58N 38°42' W 009°09'0 0.0
2017-Oct-02 06:28N 38°42' W 009°09'0 0.0
2017-Oct-02 05:52N 38°42' W 009°09'0 0.0
2017-Oct-02 05:25N 38°42' W 009°09'0 0.0
2017-Oct-02 04:58N 38°42' W 009°09'0 0.0
2017-Oct-02 04:22N 38°42' W 009°09'0 0.0
2017-Oct-02 03:49N 38°42' W 009°09'0 0.0
2017-Oct-02 03:04N 38°42' W 009°09'0 0.0
2017-Oct-02 02:58N 38°42' W 009°09'0 0.0
2017-Oct-02 02:28N 38°42' W 009°09'0 0.0
2017-Oct-02 01:55N 38°42' W 009°09'0 0.0
2017-Oct-02 01:28N 38°42' W 009°09'0 0.0
2017-Oct-01 23:58N 38°42' W 009°09'0 0.0
2017-Oct-01 23:16N 38°42' W 009°09'0 0.0
2017-Oct-01 22:58N 38°42' W 009°09'0 0.0
2017-Oct-01 22:16N 38°42' W 009°09'0 0.0
2017-Oct-01 21:46N 38°42' W 009°09'0 0.0
2017-Oct-01 21:28N 38°42' W 009°09'0 0.0
2017-Oct-01 20:58N 38°42' W 009°09'0 0.0
2017-Oct-01 20:22N 38°42' W 009°09'0 0.0
2017-Oct-01 19:49N 38°42' W 009°09'0 0.0
2017-Oct-01 18:58N 38°42' W 009°09'0 0.0
2017-Oct-01 18:25N 38°42' W 009°09'0 0.0
2017-Oct-01 17:58N 38°42' W 009°09'0 0.0
2017-Oct-01 17:22N 38°42' W 009°09'0 0.0
2017-Oct-01 16:58N 38°42' W 009°09'0 0.0
2017-Oct-01 16:16N 38°42' W 009°09'0 0.0
2017-Oct-01 15:58N 38°42' W 009°09'0 0.0
2017-Oct-01 15:19N 38°42' W 009°09'0 0.0
2017-Oct-01 14:58N 38°42' W 009°09'0 0.0
2017-Oct-01 14:22N 38°42' W 009°09'0 0.0
2017-Oct-01 13:04N 38°42' W 009°09'0 0.0
2017-Oct-01 12:58N 38°42' W 009°09'0 0.0
2017-Oct-01 12:28N 38°42' W 009°09'0 0.0
2017-Oct-01 11:43N 38°42' W 009°09'0 0.0
2017-Oct-01 11:16N 38°42' W 009°09'0 0.0
2017-Oct-01 10:58N 38°42' W 009°09'0 0.0
2017-Oct-01 10:25N 38°42' W 009°09'0 0.0
2017-Oct-01 09:04N 38°42' W 009°09'0 0.0
2017-Oct-01 08:58N 38°42' W 009°09'0 0.0
2017-Oct-01 08:28N 38°42' W 009°09'0 0.0
2017-Oct-01 07:49N 38°42' W 009°09'0 0.0
2017-Oct-01 07:28N 38°42' W 009°09'0 0.0
2017-Oct-01 06:46N 38°42' W 009°09'0 0.0
2017-Oct-01 06:25N 38°42' W 009°09'0 0.0
2017-Oct-01 05:58N 38°42' W 009°09'0 0.0
2017-Oct-01 05:19N 38°42' W 009°09'0 0.0
2017-Oct-01 04:58N 38°42' W 009°09'0 0.0
2017-Oct-01 04:19N 38°42' W 009°09'0 0.0
2017-Oct-01 03:10N 38°42' W 009°09'0 0.0
2017-Oct-01 02:58N 38°42' W 009°09'0 0.0
2017-Sep-30 01:58N 38°42' W 009°09'0 0.0
2017-Sep-30 01:07N 38°42' W 009°09'0 0.0
2017-Sep-30 00:13N 38°42' W 009°09'0 0.0
2017-Sep-29 23:49N 38°42' W 009°09'0 0.0
2017-Sep-29 23:04N 38°42' W 009°09'0 0.1
2017-Sep-29 22:58N 38°42' W 009°09'0 0.0
2017-Sep-29 22:19N 38°42' W 009°09'0 0.0
2017-Sep-29 21:58N 38°42' W 009°09'0 0.0
2017-Sep-29 21:28N 38°42' W 009°09'0 0.0
2017-Sep-29 19:58N 38°42' W 009°09'0 0.0
2017-Sep-29 19:25N 38°42' W 009°09'0 0.0
2017-Sep-29 17:13N 38°42' W 009°09'0 0.0
2017-Sep-29 16:58N 38°42' W 009°09'0 0.0
2017-Sep-29 16:22N 38°42' W 009°09'0 0.0
2017-Sep-29 15:04N 38°42' W 009°09'0 0.0
2017-Sep-29 14:58N 38°42' W 009°09'0 0.0
2017-Sep-29 14:22N 38°42' W 009°09'0 0.0
2017-Sep-29 13:58N 38°42' W 009°09'0 0.0
2017-Sep-29 13:28N 38°42' W 009°09'0 0.0
2017-Sep-29 12:58N 38°42' W 009°09'0 0.0
2017-Sep-29 12:22N 38°42' W 009°09'0 0.0
2017-Sep-29 11:58N 38°42' W 009°09'0 0.0
2017-Sep-29 11:10N 38°42' W 009°09'0 0.0
2017-Sep-29 10:43N 38°42' W 009°09'0 0.0
2017-Sep-29 10:28N 38°42' W 009°09'0 0.0
2017-Sep-29 09:58N 38°42' W 009°09'0 0.0
2017-Sep-29 09:16N 38°42' W 009°09'0 0.0
2017-Sep-29 08:52N 38°42' W 009°09'0 0.0
2017-Sep-29 08:25N 38°42' W 009°09'0 0.0
2017-Sep-29 07:40N 38°42' W 009°09'0 0.0
2017-Sep-29 07:19N 38°42' W 009°09'0 0.0
2017-Sep-29 06:58N 38°42' W 009°09'0 0.0
2017-Sep-29 06:28N 38°42' W 009°09'0 0.0
2017-Sep-29 05:58N 38°42' W 009°09'0 0.0
2017-Sep-29 05:10N 38°42' W 009°09'0 0.0
2017-Sep-29 04:58N 38°42' W 009°09'0 0.0
2017-Sep-29 04:19N 38°42' W 009°09'0 0.0
2017-Sep-29 03:28N 38°42' W 009°09'0 0.0
2017-Sep-29 02:52N 38°42' W 009°09'0 0.0
2017-Sep-29 02:28N 38°42' W 009°09'0 0.0
2017-Sep-29 01:46N 38°42' W 009°09'0 0.0
2017-Sep-29 01:28N 38°42' W 009°09'0 0.0
2017-Sep-29 00:58N 38°42' W 009°09'0 0.0
2017-Sep-29 00:28N 38°42' W 009°09'0 0.0
2017-Sep-28 23:52N 38°42' W 009°09'0 0.0
2017-Sep-28 23:28N 38°42' W 009°09'0 0.0
2017-Sep-28 22:52N 38°42' W 009°09'0 0.0
2017-Sep-28 22:22N 38°42' W 009°09'0 0.0
2017-Sep-28 21:58N 38°42' W 009°09'0 0.0
2017-Sep-28 21:19N 38°42' W 009°09'0 0.0
2017-Sep-28 20:58N 38°42' W 009°09'0 0.0
2017-Sep-28 20:22N 38°42' W 009°09'0 0.0
2017-Sep-28 19:58N 38°42' W 009°09'0 0.0
2017-Sep-28 19:19N 38°42' W 009°09'0 0.0
2017-Sep-28 18:46N 38°42' W 009°09'0 0.0
2017-Sep-28 18:25N 38°42' W 009°09'0 0.0
2017-Sep-28 17:52N 38°42' W 009°09'0 0.0
2017-Sep-28 17:10N 38°42' W 009°09'0 0.0
2017-Sep-28 16:58N 38°42' W 009°09'0 0.0
2017-Sep-28 16:28N 38°42' W 009°09'0 0.0
2017-Sep-28 15:49N 38°42' W 009°09'0 0.0
2017-Sep-28 15:04N 38°42' W 009°09'0 0.0
2017-Sep-28 14:37N 38°42' W 009°09'0 0.0
2017-Sep-28 13:43N 38°42' W 009°09'0 0.0
2017-Sep-28 12:10N 38°42' W 009°09'0 0.0
2017-Sep-28 11:58N 38°42' W 009°09'0 0.0
2017-Sep-28 11:25N 38°42' W 009°09'0 0.0
2017-Sep-28 10:58N 38°42' W 009°09'0 0.0
2017-Sep-28 10:28N 38°42' W 009°09'0 0.0
2017-Sep-28 09:58N 38°42' W 009°09'0 0.0
2017-Sep-28 09:28N 38°42' W 009°09'0 0.0
2017-Sep-28 08:43N 38°42' W 009°09'0 0.0
2017-Sep-28 08:28N 38°42' W 009°10'0 0.0
2017-Sep-28 07:58N 38°42' W 009°09'0 0.0
2017-Sep-28 07:28N 38°42' W 009°09'0 0.0
2017-Sep-28 06:58N 38°42' W 009°09'0 0.0
2017-Sep-28 06:25N 38°42' W 009°09'0 0.0
2017-Sep-28 05:58N 38°42' W 009°09'0 0.0
2017-Sep-28 05:25N 38°42' W 009°09'0 0.0
2017-Sep-28 04:58N 38°42' W 009°09'0 0.0
2017-Sep-28 04:22N 38°42' W 009°09'0 0.0
2017-Sep-28 03:49N 38°42' W 009°09'0 0.0
2017-Sep-28 03:25N 38°42' W 009°09'0 0.0
2017-Sep-28 02:58N 38°42' W 009°09'0 0.0
2017-Sep-28 02:19N 38°42' W 009°09'0 0.0
2017-Sep-28 01:58N 38°42' W 009°09'0 0.0
2017-Sep-28 01:13N 38°42' W 009°09'0 0.0
2017-Sep-28 00:52N 38°42' W 009°09'0 0.0
2017-Sep-28 00:28N 38°42' W 009°09'0 0.0
2017-Sep-27 23:58N 38°42' W 009°09'0 0.0
2017-Sep-27 23:22N 38°42' W 009°09'0 0.0
2017-Sep-27 22:46N 38°42' W 009°09'0 0.0
2017-Sep-27 22:28N 38°42' W 009°09'0 0.0
2017-Sep-27 21:58N 38°42' W 009°09'0 0.0
2017-Sep-27 21:04N 38°42' W 009°09'0 0.0
2017-Sep-27 20:55N 38°42' W 009°09'0 0.0
2017-Sep-27 20:22N 38°42' W 009°09'0 0.0
2017-Sep-27 19:49N 38°42' W 009°09'0 0.0
2017-Sep-27 19:28N 38°42' W 009°09'0 0.0
2017-Sep-27 18:34N 38°42' W 009°09'0 0.0
2017-Sep-27 18:19N 38°42' W 009°09'0 0.0
2017-Sep-27 17:58N 38°42' W 009°09'0 0.0
2017-Sep-27 16:58N 38°42' W 009°09'0 0.0
2017-Sep-27 16:28N 38°42' W 009°09'0 0.0
2017-Sep-27 15:58N 38°42' W 009°09'0 0.0
2017-Sep-27 15:28N 38°42' W 009°09'0 0.0
2017-Sep-27 14:55N 38°42' W 009°09'0 0.0
2017-Sep-27 14:28N 38°42' W 009°09'0 0.0
2017-Sep-27 13:49N 38°42' W 009°09'0 0.0
2017-Sep-27 13:19N 38°42' W 009°09'0 0.0
2017-Sep-27 12:40N 38°42' W 009°09'0 0.0
2017-Sep-27 12:22N 38°42' W 009°09'0 0.0
2017-Sep-27 11:46N 38°42' W 009°09'0 0.0
2017-Sep-27 11:13N 38°42' W 009°09'0 0.0
2017-Sep-27 10:58N 38°42' W 009°09'0 0.0
2017-Sep-27 10:25N 38°42' W 009°09'0 0.0
2017-Sep-27 09:52N 38°42' W 009°09'0 0.0
2017-Sep-27 09:16N 38°42' W 009°09'0 0.0
2017-Sep-27 08:49N 38°42' W 009°09'0 0.0
2017-Sep-27 08:19N 38°42' W 009°10'0 0.0
2017-Sep-27 07:58N 38°42' W 009°09'0 0.0
2017-Sep-27 07:16N 38°42' W 009°09'0 0.0
2017-Sep-27 05:58N 38°42' W 009°09'0 0.0
2017-Sep-27 04:37N 38°42' W 009°09'0 0.0
2017-Sep-27 04:16N 38°42' W 009°09'0 0.0
2017-Sep-27 03:58N 38°42' W 009°09'0 0.0
2017-Sep-27 03:16N 38°42' W 009°09'0 0.0
2017-Sep-27 02:58N 38°42' W 009°09'0 0.0
2017-Sep-27 02:22N 38°42' W 009°09'0 0.0
2017-Sep-27 01:40N 38°42' W 009°10'0 0.0
2017-Sep-27 01:28N 38°42' W 009°09'0 0.0
2017-Sep-27 00:58N 38°42' W 009°09'0 0.0
2017-Sep-27 00:25N 38°42' W 009°09'0 0.0
2017-Sep-26 23:07N 38°42' W 009°09'0 0.0
2017-Sep-26 22:55N 38°42' W 009°09'0 0.0
2017-Sep-26 22:19N 38°42' W 009°09'0 0.0
2017-Sep-26 21:58N 38°42' W 009°09'0 0.0
2017-Sep-26 21:16N 38°42' W 009°09'0 0.0
2017-Sep-26 20:52N 38°42' W 009°09'0 0.0
2017-Sep-26 20:28N 38°42' W 009°09'0 0.0
2017-Sep-26 19:58N 38°42' W 009°09'0 0.0
2017-Sep-26 18:55N 38°42' W 009°09'0 0.0
2017-Sep-26 18:25N 38°42' W 009°09'0 0.0
2017-Sep-26 17:58N 38°42' W 009°09'0 0.0
2017-Sep-26 17:22N 38°42' W 009°09'0 0.0
2017-Sep-26 16:52N 38°42' W 009°09'0 0.0
2017-Sep-26 16:28N 38°42' W 009°09'0 0.0
2017-Sep-26 15:58N 38°42' W 009°09'0 0.0
2017-Sep-26 15:19N 38°42' W 009°09'0 0.0
2017-Sep-26 14:55N 38°42' W 009°09'0 0.0
2017-Sep-26 14:28N 38°42' W 009°09'0 0.0
2017-Sep-26 13:58N 38°42' W 009°09'0 0.0
2017-Sep-26 13:28N 38°42' W 009°09'0 0.0
2017-Sep-26 12:58N 38°42' W 009°09'0 0.0
2017-Sep-26 12:28N 38°42' W 009°09'0 0.0
2017-Sep-26 11:58N 38°42' W 009°09'0 0.0
2017-Sep-26 11:28N 38°42' W 009°09'0 0.0
2017-Sep-26 10:52N 38°42' W 009°09'0 0.0
2017-Sep-26 10:28N 38°42' W 009°09'0 0.0
2017-Sep-26 09:58N 38°42' W 009°09'0 0.0
2017-Sep-26 09:28N 38°42' W 009°09'0 0.0
2017-Sep-26 08:58N 38°42' W 009°09'0 0.0
2017-Sep-26 08:28N 38°42' W 009°09'0 0.0
2017-Sep-26 07:58N 38°42' W 009°09'0 0.0
2017-Sep-26 07:19N 38°42' W 009°09'0 0.0
2017-Sep-26 06:58N 38°42' W 009°09'0 0.0
2017-Sep-26 06:31N 38°42' W 009°09'0 0.5
2017-Sep-26 06:01N 38°42' W 009°09'3 5.4
2017-Sep-26 05:30N 38°41' W 009°13'3 5.6
2017-Sep-26 05:01N 38°41' W 009°16'2 4.2
2017-Sep-26 04:31N 38°40' W 009°19'3 5.2
2017-Sep-26 04:00N 38°38' W 009°21'3 5.6
2017-Sep-26 03:30N 38°36' W 009°24'3 6.4
2017-Sep-26 03:00N 38°36' W 009°28'3 6.2
2017-Sep-26 02:30N 38°36' W 009°32'3 6.0
2017-Sep-26 02:00N 38°37' W 009°36'3 5.6
2017-Sep-26 01:30N 38°37' W 009°39'3 5.4
2017-Sep-26 01:01N 38°38' W 009°42'3 5.9
2017-Sep-26 00:30N 38°41' W 009°43'3 6.0
2017-Sep-26 00:00N 38°44' W 009°43'3 5.8
2017-Sep-25 23:30N 38°47' W 009°44'3 5.8
2017-Sep-25 23:00N 38°50' W 009°44'3 5.8
2017-Sep-25 22:30N 38°53' W 009°44'2 3.6
2017-Sep-25 22:00N 38°54' W 009°43'2 3.0
2017-Sep-25 21:30N 38°56' W 009°42'2 3.5
2017-Sep-25 21:00N 38°58' W 009°42'2 3.7
2017-Sep-25 20:30N 38°59' W 009°42'2 3.6
2017-Sep-25 20:00N 39°01' W 009°42'2 3.3
2017-Sep-25 19:30N 39°03' W 009°43'1 2.8
2017-Sep-25 19:01N 39°04' W 009°43'1 2.4
2017-Sep-25 18:30N 39°05' W 009°43'1 2.8
2017-Sep-25 18:00N 39°07' W 009°43'1 2.5
2017-Sep-25 17:30N 39°08' W 009°42'1 2.2
2017-Sep-25 17:00N 39°09' W 009°42'1 1.9
2017-Sep-25 16:30N 39°10' W 009°42'1 1.8
2017-Sep-25 16:00N 39°11' W 009°42'1 1.6
2017-Sep-25 15:30N 39°12' W 009°43'1 2.9
2017-Sep-25 15:00N 39°13' W 009°44'3 5.5
2017-Sep-25 14:30N 39°15' W 009°45'2 4.9
2017-Sep-25 14:00N 39°18' W 009°45'2 4.1
2017-Sep-25 13:30N 39°20' W 009°44'2 4.7
2017-Sep-25 13:00N 39°22' W 009°45'3 5.2
2017-Sep-25 12:27N 39°25' W 009°45'  

Dump ship's entire track history